Time;durP1;ratioP1;P1;durP2;ratioP2;P2;SDS_P1;SDS_P2;PMS_P1;PMS_P2;Temp;Humidity;BMP_temperature;BMP_pressure;BME280_temperature;BME280_humidity;BME280_pressure;Samples;Min_cycle;Max_cycle;Signal;HPM_P1;HPM_P2
2022/07/31 00:00:11;;;;;;;3.83;2.60;;;18.70;76.50;;;;;;5019101;28;20527;-72
2022/07/31 00:02:57;;;;;;;4.23;2.63;;;18.90;75.70;;;;;;5023346;28;20532;-72
2022/07/31 00:05:43;;;;;;;4.83;2.63;;;18.90;73.70;;;;;;5025185;28;20831;-72
2022/07/31 00:08:28;;;;;;;2.97;2.47;;;19.00;73.80;;;;;;5026851;28;20439;-72
2022/07/31 00:11:14;;;;;;;4.53;2.83;;;19.00;74.00;;;;;;5027668;28;20447;-72
2022/07/31 00:13:59;;;;;;;10.13;2.83;;;19.00;74.40;;;;;;5020103;28;20449;-73
2022/07/31 00:16:46;;;;;;;3.97;2.70;;;19.00;75.20;;;;;;5026757;28;20497;-72
2022/07/31 00:19:32;;;;;;;3.53;2.57;;;19.00;75.80;;;;;;5020017;28;20595;-72
2022/07/31 00:22:18;;;;;;;8.30;2.60;;;18.80;76.20;;;;;;5019197;28;20441;-72
2022/07/31 00:25:04;;;;;;;4.43;2.70;;;18.80;75.60;;;;;;5018230;28;20468;-72
2022/07/31 00:27:50;;;;;;;3.67;2.60;;;18.60;76.20;;;;;;5023475;28;20449;-72
2022/07/31 00:30:36;;;;;;;4.60;2.77;;;18.60;77.30;;;;;;5022928;28;20583;-72
2022/07/31 00:33:23;;;;;;;10.40;2.87;;;18.50;77.70;;;;;;5026486;28;20444;-72
2022/07/31 00:36:09;;;;;;;6.50;3.03;;;18.60;78.80;;;;;;5025762;28;20480;-72
2022/07/31 00:38:55;;;;;;;4.00;2.40;;;18.70;78.30;;;;;;5032173;28;20448;-72
2022/07/31 00:41:42;;;;;;;4.67;2.47;;;18.80;77.60;;;;;;5019453;28;20511;-72
2022/07/31 00:44:28;;;;;;;3.20;2.23;;;18.90;76.30;;;;;;5027218;28;20467;-71
2022/07/31 00:47:14;;;;;;;5.30;3.03;;;19.00;76.00;;;;;;5022651;28;20572;-72
2022/07/31 00:50:01;;;;;;;3.30;2.40;;;19.00;76.90;;;;;;5021571;28;20819;-72
2022/07/31 00:52:47;;;;;;;3.87;3.23;;;18.90;77.10;;;;;;5019550;28;20524;-72
2022/07/31 00:55:33;;;;;;;4.60;2.70;;;18.80;77.10;;;;;;5019850;28;21032;-72
2022/07/31 00:58:19;;;;;;;5.90;2.60;;;18.90;78.80;;;;;;5018751;28;20449;-72
2022/07/31 01:01:04;;;;;;;3.50;2.50;;;18.90;78.40;;;;;;5021392;28;20439;-71
2022/07/31 01:03:50;;;;;;;6.00;2.83;;;19.00;77.10;;;;;;5029276;28;20445;-75
2022/07/31 01:06:37;;;;;;;3.40;2.83;;;19.00;76.40;;;;;;5024591;28;20520;-72
2022/07/31 01:09:22;;;;;;;3.53;2.73;;;19.00;78.50;;;;;;5019832;28;20529;-72
2022/07/31 01:12:15;;;;;;;3.70;2.30;;;19.00;77.60;;;;;;5022241;28;20444;-72
2022/07/31 01:15:07;;;;;;;6.43;2.70;;;19.10;76.80;;;;;;5027329;28;20619;-72
2022/07/31 01:17:54;;;;;;;5.77;3.40;;;19.00;77.40;;;;;;5019239;28;20473;-72
2022/07/31 01:20:43;;;;;;;5.40;2.90;;;18.90;78.90;;;;;;5027687;28;20794;-72
2022/07/31 01:23:46;;;;;;;5.70;2.57;;;18.80;79.40;;;;;;5035111;28;20443;-72
2022/07/31 01:26:45;;;;;;;4.13;2.83;;;18.80;79.80;;;;;;5025871;28;20477;-72
2022/07/31 01:29:37;;;;;;;5.43;3.10;;;18.90;80.10;;;;;;5023410;28;21469;-72
2022/07/31 01:32:28;;;;;;;2.93;2.50;;;19.00;80.50;;;;;;5026097;28;20490;-72
2022/07/31 01:35:17;;;;;;;3.80;3.30;;;19.00;79.20;;;;;;5021515;28;20958;-72
2022/07/31 01:38:14;;;;;;;3.40;2.40;;;19.20;77.30;;;;;;5017539;28;20446;-72
2022/07/31 01:41:10;;;;;;;3.30;2.70;;;19.20;76.40;;;;;;5022224;28;20857;-72
2022/07/31 01:43:57;;;;;;;5.80;3.17;;;19.20;76.20;;;;;;5023128;28;20452;-72
2022/07/31 01:46:46;;;;;;;4.97;3.00;;;19.00;78.10;;;;;;5019753;28;20978;-72
2022/07/31 01:49:33;;;;;;;3.47;2.70;;;18.80;79.30;;;;;;5020805;28;21076;-72
2022/07/31 01:52:20;;;;;;;4.50;3.00;;;18.40;80.30;;;;;;5023340;28;20484;-72
2022/07/31 01:55:07;;;;;;;4.47;3.40;;;18.00;83.80;;;;;;5024700;28;20905;-73
2022/07/31 01:57:54;;;;;;;4.20;3.00;;;17.60;88.10;;;;;;5022867;28;20545;-72
2022/07/31 02:00:41;;;;;;;4.27;3.20;;;17.60;89.50;;;;;;5032569;28;20462;-72
2022/07/31 02:03:30;;;;;;;5.80;3.43;;;17.70;88.80;;;;;;5027934;28;20449;-72
2022/07/31 02:06:19;;;;;;;3.63;3.20;;;17.60;88.60;;;;;;5023034;28;20465;-72
2022/07/31 02:09:05;;;;;;;4.90;3.70;;;17.60;88.70;;;;;;5020372;28;20543;-72
2022/07/31 02:11:52;;;;;;;4.20;3.10;;;17.60;88.80;;;;;;5028077;28;20495;-72
2022/07/31 02:14:39;;;;;;;5.57;3.33;;;17.60;89.00;;;;;;5021299;28;20482;-72
2022/07/31 02:17:26;;;;;;;4.07;3.20;;;17.60;89.60;;;;;;5023952;28;20447;-72
2022/07/31 02:20:14;;;;;;;4.07;3.30;;;17.50;89.20;;;;;;5025540;28;20499;-72
2022/07/31 02:23:00;;;;;;;4.83;3.10;;;17.50;89.50;;;;;;5021883;28;20419;-72
2022/07/31 02:25:47;;;;;;;7.50;3.40;;;17.50;89.80;;;;;;5023280;28;20468;-72
2022/07/31 02:28:35;;;;;;;6.20;3.50;;;17.50;90.10;;;;;;5020905;28;20475;-72
2022/07/31 02:31:23;;;;;;;4.30;3.23;;;17.70;89.70;;;;;;5026663;28;21549;-72
2022/07/31 02:34:09;;;;;;;7.10;3.10;;;17.70;89.10;;;;;;5021057;28;20449;-72
2022/07/31 02:36:57;;;;;;;5.33;3.40;;;17.80;89.40;;;;;;5023443;28;20438;-72
2022/07/31 02:39:43;;;;;;;7.20;3.90;;;17.90;89.20;;;;;;5023294;28;20457;-72
2022/07/31 02:42:30;;;;;;;5.10;3.20;;;17.90;89.30;;;;;;5019306;28;20830;-72
2022/07/31 02:45:16;;;;;;;5.90;3.63;;;17.90;89.00;;;;;;5024216;28;20494;-72
2022/07/31 02:48:02;;;;;;;5.73;3.17;;;18.00;88.80;;;;;;5021420;28;20445;-72
2022/07/31 02:50:48;;;;;;;4.97;3.03;;;17.90;88.70;;;;;;5019898;28;20829;-72
2022/07/31 02:53:37;;;;;;;9.47;4.20;;;17.70;89.00;;;;;;5020789;28;20444;-72
2022/07/31 02:56:24;;;;;;;3.90;3.40;;;17.60;89.00;;;;;;5026604;28;20475;-72
2022/07/31 02:59:09;;;;;;;5.93;3.50;;;17.60;88.70;;;;;;5021706;28;20821;-72
2022/07/31 03:01:55;;;;;;;5.37;3.20;;;17.50;89.30;;;;;;5025882;28;20444;-72
2022/07/31 03:04:40;;;;;;;8.80;3.20;;;17.40;90.00;;;;;;5023943;28;20472;-72
2022/07/31 03:07:26;;;;;;;4.20;3.43;;;17.30;90.00;;;;;;5021757;28;20551;-72
2022/07/31 03:10:13;;;;;;;5.33;2.90;;;17.20;90.00;;;;;;5028595;28;20448;-72
2022/07/31 03:13:02;;;;;;;3.97;3.20;;;17.20;90.10;;;;;;5022870;28;20954;-72
2022/07/31 03:15:49;;;;;;;4.10;3.40;;;17.10;90.20;;;;;;5026583;28;20926;-72
2022/07/31 03:18:35;;;;;;;4.47;3.50;;;17.00;90.20;;;;;;5026280;28;20448;-72
2022/07/31 03:21:22;;;;;;;5.77;3.30;;;16.90;90.70;;;;;;5033325;28;20449;-72
2022/07/31 03:24:09;;;;;;;4.67;3.07;;;16.90;90.90;;;;;;5024489;28;20453;-72
2022/07/31 03:26:56;;;;;;;7.87;3.83;;;16.90;90.80;;;;;;5030706;28;20412;-72
2022/07/31 03:29:42;;;;;;;4.93;3.40;;;17.00;90.90;;;;;;5034531;28;20452;-72
2022/07/31 03:32:28;;;;;;;6.33;3.67;;;16.90;91.00;;;;;;5027868;28;20451;-72
2022/07/31 03:35:15;;;;;;;5.97;3.50;;;17.00;91.10;;;;;;5033129;28;20531;-72
2022/07/31 03:38:00;;;;;;;10.20;3.47;;;17.00;91.00;;;;;;5030969;28;20447;-72
2022/07/31 03:40:46;;;;;;;4.10;3.30;;;17.00;91.20;;;;;;5025105;28;20444;-71
2022/07/31 03:43:35;;;;;;;5.43;4.27;;;16.90;91.00;;;;;;5026029;28;20447;-72
2022/07/31 03:46:23;;;;;;;3.70;3.23;;;16.80;91.20;;;;;;5025319;28;21679;-72
2022/07/31 03:49:09;;;;;;;5.67;3.93;;;16.80;91.50;;;;;;5026879;28;20457;-72
2022/07/31 03:51:55;;;;;;;4.00;3.20;;;16.80;91.60;;;;;;5024187;28;20459;-72
2022/07/31 03:54:42;;;;;;;3.80;3.40;;;16.90;91.80;;;;;;5029316;28;20957;-72
2022/07/31 03:57:29;;;;;;;5.53;3.30;;;17.00;91.60;;;;;;5024989;28;20432;-72
2022/07/31 04:00:19;;;;;;;6.17;3.63;;;17.10;91.30;;;;;;5030932;28;20460;-72
2022/07/31 04:03:07;;;;;;;5.07;3.50;;;17.20;91.40;;;;;;5032580;28;20819;-72
2022/07/31 04:05:53;;;;;;;6.10;4.00;;;17.30;91.30;;;;;;5024329;28;21041;-72
2022/07/31 04:08:39;;;;;;;4.70;3.53;;;17.30;91.40;;;;;;5029009;28;20436;-72
2022/07/31 04:11:25;;;;;;;4.33;3.63;;;17.40;91.30;;;;;;5028026;28;20530;-72
2022/07/31 04:14:10;;;;;;;6.43;3.10;;;17.50;91.30;;;;;;5032943;28;20432;-71
2022/07/31 04:16:57;;;;;;;4.10;3.20;;;17.60;91.40;;;;;;5039305;28;20575;-72
2022/07/31 04:19:43;;;;;;;4.50;3.83;;;17.60;91.60;;;;;;5032140;28;21031;-72
2022/07/31 04:22:29;;;;;;;12.33;3.30;;;17.70;91.70;;;;;;5022672;28;20540;-72
2022/07/31 04:25:15;;;;;;;4.80;2.90;;;17.70;91.70;;;;;;5033930;28;20467;-72
2022/07/31 04:28:01;;;;;;;5.87;3.67;;;17.80;91.50;;;;;;5028221;28;20450;-72
2022/07/31 04:30:47;;;;;;;5.73;4.03;;;17.90;91.00;;;;;;5030506;28;20431;-72
2022/07/31 04:33:33;;;;;;;4.60;3.80;;;17.90;91.30;;;;;;5032741;28;20458;-72
2022/07/31 04:36:19;;;;;;;5.60;3.40;;;18.00;91.70;;;;;;5028135;28;20622;-72
2022/07/31 04:39:05;;;;;;;8.03;3.57;;;18.00;92.10;;;;;;5029437;28;20490;-72
2022/07/31 04:41:50;;;;;;;6.80;3.77;;;18.00;92.30;;;;;;5029256;28;20444;-72
2022/07/31 04:47:08;;;;;;;5.87;3.53;;;18.00;92.00;;;;;;5027990;28;20535;-74
2022/07/31 04:49:55;;;;;;;14.40;3.87;;;18.10;91.60;;;;;;5038883;28;20457;-74
2022/07/31 04:52:41;;;;;;;4.87;3.33;;;18.20;91.40;;;;;;5038253;28;20448;-74
2022/07/31 04:55:26;;;;;;;4.30;3.17;;;18.20;91.30;;;;;;5030814;28;20471;-74
2022/07/31 04:58:12;;;;;;;5.27;3.80;;;18.30;91.10;;;;;;5033115;28;20530;-74
2022/07/31 05:00:58;;;;;;;6.07;3.07;;;18.40;90.50;;;;;;5032013;28;20439;-74
2022/07/31 05:03:43;;;;;;;4.50;3.40;;;18.40;90.30;;;;;;5029266;28;20463;-74
2022/07/31 05:06:38;;;;;;;5.97;3.73;;;18.40;90.60;;;;;;5025926;28;20464;-74
2022/07/31 05:09:24;;;;;;;6.13;3.77;;;18.60;90.70;;;;;;5031888;28;20520;-74
2022/07/31 05:12:10;;;;;;;4.40;3.40;;;18.70;90.30;;;;;;5032199;28;20444;-74
2022/07/31 05:14:56;;;;;;;4.80;3.23;;;18.80;90.00;;;;;;5031579;28;20868;-74
2022/07/31 05:17:41;;;;;;;4.60;3.57;;;18.80;89.70;;;;;;5026567;28;20835;-74
2022/07/31 05:20:27;;;;;;;4.33;3.30;;;18.80;89.80;;;;;;5032575;28;20555;-74
2022/07/31 05:23:14;;;;;;;5.73;3.27;;;18.80;90.50;;;;;;5032291;28;20475;-74
2022/07/31 05:26:00;;;;;;;4.30;3.03;;;18.90;90.80;;;;;;5031359;28;20431;-74
2022/07/31 05:28:48;;;;;;;6.40;3.33;;;18.80;91.10;;;;;;5034086;28;20456;-74
2022/07/31 05:31:34;;;;;;;4.77;3.73;;;18.80;91.50;;;;;;5029891;28;20933;-74
2022/07/31 05:34:19;;;;;;;4.93;3.37;;;18.80;90.80;;;;;;5036775;28;20811;-74
2022/07/31 05:37:05;;;;;;;5.77;3.80;;;18.80;90.80;;;;;;5031518;28;20479;-74
2022/07/31 05:39:52;;;;;;;5.27;3.73;;;18.90;90.50;;;;;;5033140;28;20795;-74
2022/07/31 05:42:37;;;;;;;5.60;3.37;;;19.00;90.90;;;;;;5034770;28;20525;-74
2022/07/31 05:45:23;;;;;;;4.20;3.47;;;19.00;90.90;;;;;;5027754;28;20480;-74
2022/07/31 05:48:09;;;;;;;6.80;3.80;;;19.00;90.90;;;;;;5028039;28;20539;-74
2022/07/31 05:50:55;;;;;;;6.57;2.93;;;19.00;90.60;;;;;;5037806;28;20431;-74
2022/07/31 05:53:41;;;;;;;5.73;3.20;;;19.00;89.70;;;;;;5030868;28;20446;-74
2022/07/31 05:56:28;;;;;;;5.30;4.07;;;19.10;90.10;;;;;;5023249;28;21006;-74
2022/07/31 05:59:13;;;;;;;4.83;3.53;;;19.10;90.40;;;;;;5028339;28;20471;-74
2022/07/31 06:01:59;;;;;;;4.17;3.37;;;19.20;90.50;;;;;;5031378;28;20519;-74
2022/07/31 06:04:45;;;;;;;4.00;3.10;;;19.20;89.90;;;;;;5029084;28;20538;-74
2022/07/31 06:07:30;;;;;;;4.50;3.17;;;19.30;90.20;;;;;;5028144;28;20956;-74
2022/07/31 06:10:16;;;;;;;4.40;3.20;;;19.40;90.30;;;;;;5031268;28;20964;-74
2022/07/31 06:13:04;;;;;;;6.00;3.43;;;19.50;90.10;;;;;;5028677;28;20456;-74
2022/07/31 06:15:49;;;;;;;6.10;4.17;;;19.50;90.20;;;;;;5026044;28;20464;-74
2022/07/31 06:18:35;;;;;;;5.07;3.20;;;19.50;90.00;;;;;;5029339;28;20512;-74
2022/07/31 06:21:21;;;;;;;4.97;3.20;;;19.50;88.00;;;;;;5030690;28;20506;-74
2022/07/31 06:24:07;;;;;;;5.60;3.47;;;19.60;85.60;;;;;;5030582;28;20527;-74
2022/07/31 06:26:57;;;;;;;5.13;3.10;;;19.60;85.10;;;;;;5031220;28;21267;-74
2022/07/31 06:29:44;;;;;;;5.87;3.53;;;19.70;83.00;;;;;;5028184;28;20459;-74
2022/07/31 06:32:29;;;;;;;4.20;3.33;;;19.80;83.00;;;;;;5032658;28;20518;-74
2022/07/31 06:35:15;;;;;;;4.60;3.17;;;19.80;82.70;;;;;;5026090;28;20460;-74
2022/07/31 06:38:01;;;;;;;4.53;2.80;;;19.90;83.80;;;;;;5026824;28;20464;-74
2022/07/31 06:40:46;;;;;;;7.33;3.20;;;20.00;82.50;;;;;;5032227;28;20441;-74
2022/07/31 06:43:31;;;;;;;10.73;2.83;;;20.00;82.70;;;;;;5025657;28;20482;-74
2022/07/31 06:46:19;;;;;;;5.47;3.13;;;20.00;83.10;;;;;;5025006;28;20468;-74
2022/07/31 06:49:05;;;;;;;5.40;2.77;;;20.10;81.60;;;;;;5031054;28;20437;-74
2022/07/31 06:51:51;;;;;;;7.90;3.33;;;20.10;82.10;;;;;;5031065;28;21043;-74
2022/07/31 06:54:37;;;;;;;7.93;3.20;;;20.10;82.30;;;;;;5023295;28;20491;-74
2022/07/31 06:57:22;;;;;;;3.20;2.90;;;20.20;81.50;;;;;;5033086;28;21028;-74
2022/07/31 07:00:09;;;;;;;4.87;3.20;;;20.30;80.90;;;;;;5032384;28;20520;-74
2022/07/31 07:02:56;;;;;;;7.10;3.30;;;20.30;81.80;;;;;;5034607;28;20924;-74
2022/07/31 07:05:41;;;;;;;4.80;3.17;;;20.40;82.60;;;;;;5022206;28;20516;-74
2022/07/31 07:08:27;;;;;;;4.53;3.10;;;20.50;82.90;;;;;;5031094;28;20439;-74
2022/07/31 07:11:13;;;;;;;3.80;3.10;;;20.50;83.30;;;;;;5031470;28;20780;-74
2022/07/31 07:13:59;;;;;;;5.60;3.33;;;20.60;83.40;;;;;;5026160;28;20460;-74
2022/07/31 07:16:45;;;;;;;4.83;3.30;;;20.70;82.20;;;;;;5027954;28;21008;-74
2022/07/31 07:19:32;;;;;;;4.90;3.47;;;20.70;80.80;;;;;;5027582;28;20822;-74
2022/07/31 07:22:18;;;;;;;4.47;3.57;;;20.80;81.00;;;;;;5034398;28;20419;-74
2022/07/31 07:25:04;;;;;;;4.47;3.53;;;20.90;80.40;;;;;;5023712;28;20550;-74
2022/07/31 07:27:50;;;;;;;9.40;3.47;;;21.00;77.70;;;;;;5029832;28;20527;-74
2022/07/31 07:30:36;;;;;;;5.70;2.80;;;21.20;76.20;;;;;;5025879;28;20877;-74
2022/07/31 07:33:21;;;;;;;4.37;3.03;;;21.20;73.50;;;;;;5027268;28;20452;-74
2022/07/31 07:36:09;;;;;;;6.70;3.90;;;21.30;73.10;;;;;;5031473;28;20529;-74
2022/07/31 07:38:54;;;;;;;7.20;3.60;;;21.40;71.20;;;;;;5030361;28;20418;-74
2022/07/31 07:41:40;;;;;;;6.13;3.73;;;21.40;69.90;;;;;;5028192;28;20449;-74
2022/07/31 07:44:26;;;;;;;4.90;3.33;;;21.50;69.00;;;;;;5024921;28;20447;-74
2022/07/31 07:47:11;;;;;;;4.80;3.23;;;21.60;69.50;;;;;;5027557;28;20515;-74
2022/07/31 07:49:57;;;;;;;8.20;3.57;;;21.60;70.20;;;;;;5033524;28;20524;-75
2022/07/31 07:52:44;;;;;;;5.27;3.10;;;21.70;70.60;;;;;;5028009;28;20522;-75
2022/07/31 07:55:30;;;;;;;4.80;3.10;;;21.70;68.20;;;;;;5026831;28;20467;-75
2022/07/31 07:58:16;;;;;;;3.77;3.00;;;21.80;68.80;;;;;;5027275;28;21107;-75
2022/07/31 08:01:02;;;;;;;3.40;3.10;;;21.90;67.50;;;;;;5030232;28;20443;-75
2022/07/31 08:03:47;;;;;;;6.13;3.27;;;22.00;67.90;;;;;;5025131;28;20444;-75
2022/07/31 08:06:33;;;;;;;5.10;3.23;;;22.10;69.20;;;;;;5034446;28;20454;-75
2022/07/31 08:09:21;;;;;;;6.00;3.20;;;22.20;67.00;;;;;;5036409;28;20814;-76
2022/07/31 08:12:07;;;;;;;4.10;3.13;;;22.20;64.70;;;;;;5029303;28;20451;-76
2022/07/31 08:14:53;;;;;;;4.37;3.17;;;22.30;65.80;;;;;;5031018;28;20913;-77
2022/07/31 08:17:39;;;;;;;6.43;3.67;;;22.40;64.90;;;;;;5042165;28;20470;-77
2022/07/31 08:20:25;;;;;;;5.30;2.77;;;22.50;63.80;;;;;;5035556;28;20982;-76
2022/07/31 08:23:11;;;;;;;5.43;3.53;;;22.60;62.30;;;;;;5032290;28;20985;-76
2022/07/31 08:25:58;;;;;;;4.57;3.10;;;22.80;62.90;;;;;;5032383;28;20459;-76
2022/07/31 08:28:44;;;;;;;7.10;3.20;;;23.00;61.80;;;;;;5032046;28;20696;-76
2022/07/31 08:31:29;;;;;;;3.13;2.60;;;23.10;61.40;;;;;;5033370;28;20463;-75
2022/07/31 08:34:15;;;;;;;4.53;2.67;;;23.20;60.70;;;;;;5029561;28;20455;-75
2022/07/31 08:37:01;;;;;;;7.37;2.77;;;23.30;58.90;;;;;;5033235;28;20962;-73
2022/07/31 08:39:48;;;;;;;4.00;2.60;;;23.30;56.90;;;;;;5033240;28;20515;-73
2022/07/31 08:42:36;;;;;;;9.97;3.97;;;23.30;57.20;;;;;;5027316;28;20444;-73
2022/07/31 08:45:22;;;;;;;4.73;2.90;;;23.50;61.30;;;;;;5034555;28;20476;-73
2022/07/31 08:48:09;;;;;;;9.90;3.00;;;23.60;57.90;;;;;;5033055;28;20832;-73
2022/07/31 08:50:55;;;;;;;5.60;3.00;;;23.80;51.70;;;;;;5034726;28;20446;-73
2022/07/31 08:53:43;;;;;;;6.90;3.67;;;24.00;41.10;;;;;;5026382;28;20800;-73
2022/07/31 08:56:29;;;;;;;16.40;3.97;;;24.10;43.00;;;;;;5031091;28;20476;-73
2022/07/31 08:59:17;;;;;;;4.53;2.90;;;24.30;44.90;;;;;;5037508;28;20823;-73
2022/07/31 09:02:03;;;;;;;12.43;3.83;;;24.30;40.40;;;;;;5034565;28;20443;-73
2022/07/31 09:04:50;;;;;;;10.43;3.27;;;24.40;39.40;;;;;;5030589;28;20445;-71
2022/07/31 09:07:35;;;;;;;7.10;2.67;;;24.40;38.20;;;;;;5031846;28;20505;-70
2022/07/31 09:10:24;;;;;;;6.80;2.70;;;24.50;38.70;;;;;;5036653;28;20991;-72
2022/07/31 09:13:13;;;;;;;14.13;3.10;;;24.50;38.70;;;;;;5025978;28;20440;-71
2022/07/31 09:16:00;;;;;;;10.83;4.13;;;24.40;38.80;;;;;;5033183;28;20476;-71
2022/07/31 09:18:55;;;;;;;5.40;2.73;;;24.50;39.50;;;;;;5032312;28;20476;-72
2022/07/31 09:21:41;;;;;;;5.37;2.70;;;24.60;39.80;;;;;;5027625;28;22086;-72
2022/07/31 09:24:28;;;;;;;6.17;2.97;;;24.70;40.10;;;;;;5033090;28;20460;-71
2022/07/31 09:27:16;;;;;;;13.07;4.00;;;24.80;39.00;;;;;;5032048;28;20518;-72
2022/07/31 09:30:01;;;;;;;5.07;2.90;;;24.80;41.10;;;;;;5034076;28;20852;-72
2022/07/31 09:32:48;;;;;;;9.67;3.30;;;24.70;35.60;;;;;;5026687;28;20535;-71
2022/07/31 09:35:38;;;;;;;5.40;2.40;;;24.70;36.30;;;;;;5025910;28;20957;-71
2022/07/31 09:38:32;;;;;;;4.60;2.90;;;24.70;34.20;;;;;;5033372;28;20479;-71
2022/07/31 09:41:19;;;;;;;4.70;2.10;;;24.80;35.10;;;;;;5027437;28;21050;-71
2022/07/31 09:44:05;;;;;;;4.80;2.43;;;24.80;30.30;;;;;;5036020;28;20507;-71
2022/07/31 09:46:51;;;;;;;4.90;2.10;;;24.90;33.80;;;;;;5031919;28;20523;-71
2022/07/31 09:49:38;;;;;;;9.97;2.67;;;25.00;33.50;;;;;;5030664;28;20570;-71
2022/07/31 09:52:25;;;;;;;6.40;3.10;;;25.10;36.40;;;;;;5023800;28;20447;-71
2022/07/31 09:55:14;;;;;;;3.90;2.43;;;25.30;35.30;;;;;;5037692;28;20546;-71
2022/07/31 09:58:01;;;;;;;5.03;2.43;;;25.40;33.90;;;;;;5041076;28;20473;-71
2022/07/31 10:00:48;;;;;;;3.77;2.53;;;25.50;32.30;;;;;;5024078;28;20448;-72
2022/07/31 10:03:36;;;;;;;5.30;2.43;;;25.50;31.70;;;;;;5027063;28;20444;-73
2022/07/31 10:06:25;;;;;;;4.10;2.30;;;25.60;31.00;;;;;;5031239;28;20464;-73
2022/07/31 10:09:11;;;;;;;3.67;2.20;;;25.60;33.40;;;;;;5032475;28;20449;-72
2022/07/31 10:11:58;;;;;;;4.00;2.47;;;25.60;32.80;;;;;;5026761;28;20974;-72
2022/07/31 10:14:45;;;;;;;3.30;2.00;;;25.50;33.70;;;;;;5030156;28;20448;-72
2022/07/31 10:17:33;;;;;;;3.80;2.20;;;25.40;31.70;;;;;;5033425;28;21056;-72
2022/07/31 10:20:22;;;;;;;6.13;2.00;;;25.40;32.90;;;;;;5029926;28;20453;-71
2022/07/31 10:23:16;;;;;;;4.70;2.20;;;25.30;32.70;;;;;;5029548;28;20459;-72
2022/07/31 10:26:02;;;;;;;5.17;2.53;;;25.40;33.30;;;;;;5032161;28;20465;-72
2022/07/31 10:28:49;;;;;;;11.60;2.63;;;25.40;35.10;;;;;;5031293;28;20438;-72
2022/07/31 10:31:36;;;;;;;8.60;2.23;;;25.50;34.70;;;;;;5023795;28;20471;-72
2022/07/31 10:34:22;;;;;;;7.33;2.20;;;25.50;37.00;;;;;;5036094;28;20444;-72
2022/07/31 10:37:13;;;;;;;5.73;2.00;;;25.60;33.10;;;;;;5032592;28;20452;-72
2022/07/31 10:40:06;;;;;;;3.50;2.07;;;25.60;34.80;;;;;;5033665;28;21029;-71
2022/07/31 10:43:00;;;;;;;4.60;2.40;;;25.70;34.80;;;;;;5032759;28;20471;-72
2022/07/31 10:45:47;;;;;;;3.40;2.20;;;25.80;33.70;;;;;;5048230;22;20852;-74
2022/07/31 10:48:33;;;;;;;7.90;2.47;;;25.90;33.60;;;;;;5019416;28;20450;-74
2022/07/31 10:51:21;;;;;;;6.53;2.80;;;26.00;34.60;;;;;;5016539;28;20451;-75
2022/07/31 10:54:10;;;;;;;5.23;2.33;;;26.00;31.40;;;;;;5020043;28;20511;-75
2022/07/31 10:56:58;;;;;;;5.80;2.50;;;26.10;32.70;;;;;;5014786;28;20478;-75
2022/07/31 10:59:44;;;;;;;3.93;2.10;;;26.10;31.40;;;;;;5009391;28;20521;-74
2022/07/31 11:02:32;;;;;;;4.47;2.40;;;26.10;31.40;;;;;;5014948;28;20444;-74
2022/07/31 11:05:22;;;;;;;6.30;2.60;;;26.20;31.50;;;;;;5013051;28;20507;-75
2022/07/31 11:08:08;;;;;;;5.50;2.30;;;26.30;34.50;;;;;;5016638;28;20597;-75
2022/07/31 11:10:54;;;;;;;6.43;2.50;;;26.40;30.80;;;;;;5005513;28;20449;-74
2022/07/31 11:13:54;;;;;;;5.27;2.63;;;26.40;31.70;;;;;;5015866;28;20587;-74
2022/07/31 11:16:49;;;;;;;4.73;2.60;;;26.40;31.70;;;;;;5018274;28;20615;-74
2022/07/31 11:19:39;;;;;;;4.50;2.53;;;26.50;30.40;;;;;;5010670;28;20592;-75
2022/07/31 11:22:25;;;;;;;5.07;2.77;;;26.50;31.80;;;;;;5013381;28;20472;-75
2022/07/31 11:25:13;;;;;;;3.70;2.47;;;26.50;33.40;;;;;;5020837;28;20445;-74
2022/07/31 11:28:10;;;;;;;3.40;2.30;;;26.50;32.80;;;;;;5011939;28;20441;-75
2022/07/31 11:31:00;;;;;;;6.80;2.97;;;26.50;31.80;;;;;;5009364;28;20453;-75
2022/07/31 11:33:48;;;;;;;4.77;3.10;;;26.50;31.80;;;;;;5013333;28;20452;-75
2022/07/31 11:36:58;;;;;;;6.03;2.33;;;26.60;31.80;;;;;;5098449;22;20481;-75
2022/07/31 11:39:44;;;;;;;4.43;2.53;;;26.70;30.90;;;;;;5049976;28;20972;-74
2022/07/31 11:42:29;;;;;;;3.00;2.00;;;26.60;30.00;;;;;;5056427;28;20442;-74
2022/07/31 11:45:16;;;;;;;4.70;2.90;;;26.70;30.30;;;;;;5062249;28;20442;-75
2022/07/31 11:48:07;;;;;;;4.70;2.70;;;26.80;31.60;;;;;;5059690;28;20972;-74
2022/07/31 11:50:54;;;;;;;4.77;3.20;;;26.90;32.30;;;;;;5053426;28;20539;-74
2022/07/31 11:53:41;;;;;;;4.60;2.77;;;27.10;32.20;;;;;;5054620;28;21077;-74
2022/07/31 12:03:24;;;;;;;5.10;2.30;;;28.20;28.50;;;;;;4970498;28;20463;-74
2022/07/31 12:06:28;;;;;;;4.10;2.30;;;28.60;27.40;;;;;;4977644;28;21002;-75
2022/07/31 12:09:14;;;;;;;3.13;2.00;;;29.00;27.10;;;;;;5014770;28;20449;-75
2022/07/31 12:12:00;;;;;;;3.20;2.20;;;29.20;27.60;;;;;;5012019;28;21573;-74
2022/07/31 12:14:46;;;;;;;6.20;2.30;;;29.40;26.40;;;;;;5011945;28;20453;-74
2022/07/31 12:17:31;;;;;;;6.93;2.73;;;29.50;25.30;;;;;;5010608;28;20426;-74
2022/07/31 12:20:17;;;;;;;4.20;2.67;;;29.50;26.90;;;;;;5011766;28;20468;-75
2022/07/31 12:23:06;;;;;;;3.50;2.30;;;29.60;25.90;;;;;;5014512;28;20461;-74
2022/07/31 12:25:52;;;;;;;4.13;2.20;;;29.60;25.60;;;;;;5017264;28;20468;-74
2022/07/31 12:28:38;;;;;;;4.50;2.03;;;29.60;25.50;;;;;;5009830;28;20453;-74
2022/07/31 12:31:24;;;;;;;6.07;2.50;;;29.70;26.10;;;;;;5012852;28;20539;-74
2022/07/31 12:34:09;;;;;;;5.77;2.27;;;29.70;25.40;;;;;;5019257;28;20445;-74
2022/07/31 12:37:00;;;;;;;6.13;2.60;;;29.30;24.70;;;;;;5017301;28;20832;-74
2022/07/31 12:39:53;;;;;;;3.73;2.63;;;28.90;25.80;;;;;;5003518;28;20472;-74
2022/07/31 12:42:39;;;;;;;4.03;2.40;;;28.80;27.20;;;;;;5010129;28;20452;-74
2022/07/31 12:45:35;;;;;;;5.33;2.70;;;28.60;26.20;;;;;;5013968;28;20591;-74
2022/07/31 12:48:21;;;;;;;3.30;2.33;;;28.50;27.50;;;;;;5007914;28;20438;-74
2022/07/31 12:51:07;;;;;;;6.63;2.80;;;28.40;26.90;;;;;;5007611;28;20555;-74
2022/07/31 12:53:53;;;;;;;5.87;2.60;;;28.40;28.30;;;;;;5005445;28;20445;-74
2022/07/31 12:56:41;;;;;;;6.73;2.93;;;28.50;27.60;;;;;;5019819;28;20468;-74
2022/07/31 12:59:26;;;;;;;5.93;2.60;;;28.70;28.60;;;;;;5009745;28;20467;-75
2022/07/31 13:02:12;;;;;;;8.83;2.40;;;28.90;27.30;;;;;;5032321;28;20921;-74
2022/07/31 13:04:58;;;;;;;2.80;2.20;;;29.30;28.00;;;;;;5024637;28;20420;-74
2022/07/31 13:07:44;;;;;;;6.53;3.20;;;29.60;25.60;;;;;;5024572;28;20429;-75
2022/07/31 13:10:29;;;;;;;6.50;2.60;;;29.80;24.50;;;;;;5011986;28;20432;-74
2022/07/31 13:13:18;;;;;;;3.60;2.27;;;29.90;24.40;;;;;;5031217;28;20479;-75
2022/07/31 13:16:03;;;;;;;5.50;2.23;;;30.20;24.10;;;;;;5032713;28;20449;-75
2022/07/31 13:18:49;;;;;;;3.60;2.40;;;30.10;23.60;;;;;;5014876;28;20477;-75
2022/07/31 13:21:35;;;;;;;3.60;2.30;;;29.90;23.90;;;;;;5022711;28;20856;-75
2022/07/31 13:24:21;;;;;;;8.30;2.40;;;29.60;24.30;;;;;;5032493;28;20436;-74
2022/07/31 13:27:07;;;;;;;4.27;2.33;;;29.70;25.50;;;;;;5029466;28;21032;-75
2022/07/31 13:29:55;;;;;;;2.57;2.00;;;30.00;25.20;;;;;;5019689;28;20476;-75
2022/07/31 13:32:40;;;;;;;6.57;2.53;;;30.00;24.50;;;;;;5031581;28;20425;-75
2022/07/31 13:35:26;;;;;;;3.07;1.67;;;30.30;25.40;;;;;;5029910;28;20449;-75
2022/07/31 13:38:13;;;;;;;3.57;2.07;;;30.40;23.50;;;;;;5012247;28;20477;-74
2022/07/31 13:44:03;;;;;;;4.13;2.07;;;30.80;22.60;;;;;;5021731;28;20479;-75
2022/07/31 13:46:53;;;;;;;6.53;2.47;;;30.90;21.90;;;;;;5026393;28;21028;-75
2022/07/31 13:49:39;;;;;;;6.97;2.10;;;31.10;22.40;;;;;;5011131;28;20425;-75
2022/07/31 13:52:25;;;;;;;3.63;2.20;;;31.10;22.30;;;;;;5029382;28;20459;-75
2022/07/31 13:55:10;;;;;;;10.33;2.20;;;31.20;21.80;;;;;;5015732;28;20548;-75
2022/07/31 13:57:55;;;;;;;5.93;1.90;;;31.30;20.70;;;;;;5015984;28;20963;-74
2022/07/31 14:00:41;;;;;;;3.53;2.07;;;31.20;19.00;;;;;;5017892;28;20549;-75
2022/07/31 14:03:28;;;;;;;4.17;2.10;;;31.00;19.90;;;;;;5031765;28;20432;-75
2022/07/31 14:06:14;;;;;;;6.00;2.33;;;30.60;20.30;;;;;;5024064;28;20445;-75
2022/07/31 14:08:59;;;;;;;5.33;1.80;;;30.30;20.50;;;;;;5023992;28;20519;-75
2022/07/31 14:11:45;;;;;;;5.57;2.00;;;30.30;20.70;;;;;;5030025;28;20797;-74
2022/07/31 14:14:31;;;;;;;3.57;2.17;;;30.30;22.20;;;;;;5017608;28;20440;-75
2022/07/31 14:17:17;;;;;;;6.57;2.27;;;30.20;22.30;;;;;;5009926;28;20484;-75
2022/07/31 14:20:04;;;;;;;3.50;2.20;;;30.10;22.20;;;;;;5010021;28;20527;-75
2022/07/31 14:22:50;;;;;;;3.37;2.10;;;29.90;21.80;;;;;;5025785;28;20449;-75
2022/07/31 14:25:36;;;;;;;3.67;1.97;;;30.00;21.40;;;;;;5013657;28;20583;-75
2022/07/31 14:28:23;;;;;;;3.10;2.20;;;30.10;21.70;;;;;;5011609;28;20449;-75
2022/07/31 14:31:10;;;;;;;6.13;1.93;;;30.10;20.60;;;;;;5025982;28;20421;-74
2022/07/31 14:33:55;;;;;;;8.60;2.30;;;30.10;22.20;;;;;;5021948;28;20953;-75
2022/07/31 14:36:42;;;;;;;3.80;1.77;;;30.30;22.40;;;;;;5007772;28;20503;-75
2022/07/31 14:39:28;;;;;;;3.20;2.00;;;30.60;21.60;;;;;;5029058;28;20472;-75